createdAt,value
2017-07-28T00:00:14.789Z,77.40
2017-07-28T00:02:41.634Z,77.50
2017-07-28T00:05:08.547Z,77.70
2017-07-28T00:07:35.485Z,77.80
2017-07-28T00:10:03.125Z,77.70
2017-07-28T00:12:29.995Z,77.60
2017-07-28T00:14:57.655Z,77.90
2017-07-28T00:17:25.246Z,77.70
2017-07-28T00:19:52.164Z,77.70
2017-07-28T00:22:19.022Z,77.60
2017-07-28T00:24:45.966Z,77.50
2017-07-28T00:27:12.812Z,77.50
2017-07-28T00:29:39.659Z,77.10
2017-07-28T00:32:06.598Z,76.90
2017-07-28T00:34:33.531Z,77.00
2017-07-28T00:37:00.399Z,77.10
2017-07-28T00:39:27.375Z,76.90
2017-07-28T00:41:54.248Z,76.70
2017-07-28T00:44:21.191Z,76.60
2017-07-28T00:46:48.050Z,76.60
2017-07-28T00:49:15.735Z,77.00
2017-07-28T00:51:42.715Z,76.80
2017-07-28T00:54:09.564Z,76.70
2017-07-28T00:56:36.426Z,76.80
2017-07-28T00:59:03.425Z,76.70
2017-07-28T01:01:30.301Z,76.30
2017-07-28T01:03:57.202Z,76.40
2017-07-28T01:06:24.137Z,76.10
2017-07-28T01:08:51.727Z,76.10
2017-07-28T01:11:18.684Z,76.10
2017-07-28T01:13:45.628Z,76.20
2017-07-28T01:16:12.568Z,76.00
2017-07-28T01:18:39.436Z,76.00
2017-07-28T01:21:06.379Z,76.10
2017-07-28T01:23:33.254Z,75.90
2017-07-28T01:26:00.196Z,75.90
2017-07-28T01:28:27.207Z,75.90
2017-07-28T01:30:54.061Z,75.70
2017-07-28T01:33:20.931Z,75.80
2017-07-28T01:35:47.892Z,75.80
2017-07-28T01:38:14.759Z,75.70
2017-07-28T01:40:41.687Z,75.70
2017-07-28T01:43:09.364Z,76.30
2017-07-28T01:45:36.995Z,75.30
2017-07-28T01:48:03.952Z,75.30
2017-07-28T01:50:30.824Z,75.30
2017-07-28T01:52:57.790Z,75.30
2017-07-28T01:55:24.730Z,75.30
2017-07-28T01:57:51.719Z,75.30
2017-07-28T02:00:18.683Z,75.30
2017-07-28T02:02:45.716Z,75.10
2017-07-28T02:05:12.620Z,75.20
2017-07-28T02:07:39.581Z,75.00
2017-07-28T02:10:06.433Z,75.10
2017-07-28T02:12:33.294Z,75.50
2017-07-28T02:15:00.255Z,75.40
2017-07-28T02:17:27.128Z,75.50
2017-07-28T02:19:54.312Z,75.60
2017-07-28T02:22:21.170Z,75.60
2017-07-28T02:24:48.087Z,76.60
2017-07-28T02:27:14.944Z,75.60
2017-07-28T02:29:41.783Z,75.70
2017-07-28T02:32:08.699Z,75.30
2017-07-28T02:34:35.565Z,75.30
2017-07-28T02:37:02.432Z,75.10
2017-07-28T02:39:29.355Z,75.30
2017-07-28T02:41:56.209Z,74.80
2017-07-28T02:44:32.026Z,74.70
2017-07-28T02:47:00.998Z,74.90
2017-07-28T02:49:28.191Z,74.90
2017-07-28T02:51:55.055Z,74.80
2017-07-28T02:54:21.943Z,74.90
2017-07-28T02:56:48.895Z,74.90
2017-07-28T02:59:16.508Z,74.90
2017-07-28T03:01:43.422Z,74.90
2017-07-28T03:04:10.268Z,74.60
2017-07-28T03:06:37.178Z,74.30
2017-07-28T03:09:04.231Z,74.60
2017-07-28T03:11:31.069Z,74.40
2017-07-28T03:13:57.931Z,74.50
2017-07-28T03:16:25.583Z,75.10
2017-07-28T03:18:52.448Z,74.50
2017-07-28T03:21:20.108Z,74.50
2017-07-28T03:23:47.777Z,74.30
2017-07-28T03:26:15.451Z,74.60
2017-07-28T03:28:42.366Z,74.60
2017-07-28T03:31:09.212Z,74.70
2017-07-28T03:33:36.122Z,74.30
2017-07-28T03:36:02.975Z,74.10
2017-07-28T03:38:29.837Z,74.10
2017-07-28T03:40:56.779Z,74.10
2017-07-28T03:43:23.631Z,74.20
2017-07-28T03:45:50.559Z,74.00
2017-07-28T03:48:17.466Z,73.80
2017-07-28T03:50:44.319Z,73.90
2017-07-28T03:53:11.230Z,74.20
2017-07-28T03:55:38.843Z,74.20
2017-07-28T03:58:05.859Z,74.30
2017-07-28T04:00:32.752Z,73.90
2017-07-28T04:02:59.647Z,73.70
2017-07-28T04:05:26.587Z,73.50
2017-07-28T04:07:53.436Z,73.50
2017-07-28T04:10:20.379Z,73.60
2017-07-28T04:12:47.219Z,73.40
2017-07-28T04:15:14.247Z,73.60
2017-07-28T04:17:41.111Z,73.30
2017-07-28T04:20:07.961Z,73.20
2017-07-28T04:22:34.938Z,73.30
2017-07-28T04:25:01.876Z,73.20
2017-07-28T04:27:28.736Z,73.50
2017-07-28T04:29:55.668Z,73.00
2017-07-28T04:32:22.524Z,72.90
2017-07-28T04:34:49.459Z,72.80
2017-07-28T04:37:16.316Z,72.40
2017-07-28T04:39:43.158Z,72.30
2017-07-28T04:42:10.118Z,69.70
2017-07-28T04:44:36.999Z,66.60
2017-07-28T04:47:04.603Z,61.10
2017-07-28T04:49:31.588Z,61.10
2017-07-28T04:51:58.446Z,58.00
2017-07-28T04:54:26.064Z,50.50
2017-07-28T04:56:52.999Z,49.70
2017-07-28T04:59:19.868Z,46.50
2017-07-28T05:01:46.803Z,44.70
2017-07-28T05:04:13.739Z,43.10
2017-07-28T05:06:40.696Z,43.90
2017-07-28T05:09:07.613Z,48.10
2017-07-28T05:11:34.485Z,50.30
2017-07-28T05:14:01.410Z,53.60
2017-07-28T05:16:28.261Z,55.80
2017-07-28T05:18:55.249Z,58.10
2017-07-28T05:21:22.167Z,59.80
2017-07-28T05:23:49.041Z,61.80
2017-07-28T05:26:16.041Z,63.50
2017-07-28T05:28:42.892Z,64.20
2017-07-28T05:31:09.762Z,65.20
2017-07-28T05:33:37.500Z,66.20
2017-07-28T05:36:04.404Z,66.30
2017-07-28T05:38:31.339Z,66.70
2017-07-28T05:40:59.319Z,67.00
2017-07-28T05:43:26.983Z,68.10
2017-07-28T05:45:54.591Z,67.60
2017-07-28T05:48:21.548Z,67.60
2017-07-28T05:50:48.492Z,67.60
2017-07-28T05:53:15.372Z,67.70
2017-07-28T05:55:42.999Z,67.80
2017-07-28T05:58:09.850Z,67.90
2017-07-28T06:00:37.047Z,67.80
2017-07-28T06:03:10.652Z,67.50
2017-07-28T06:05:38.240Z,67.10
2017-07-28T06:08:05.747Z,67.00
2017-07-28T06:10:32.628Z,67.50
2017-07-28T06:12:59.608Z,66.60
2017-07-28T06:15:26.473Z,66.10
2017-07-28T06:18:04.704Z,64.70
2017-07-28T06:20:32.264Z,64.10
2017-07-28T06:22:59.947Z,64.20
2017-07-28T06:25:26.888Z,64.20
2017-07-28T06:27:54.496Z,62.70
2017-07-28T06:30:21.379Z,62.70
2017-07-28T06:32:49.077Z,62.70
2017-07-28T06:35:15.956Z,62.60
2017-07-28T06:37:42.902Z,62.10
2017-07-28T06:40:09.855Z,62.20
2017-07-28T06:42:36.778Z,61.60
2017-07-28T06:45:03.704Z,61.90
2017-07-28T06:47:30.572Z,61.90
2017-07-28T06:49:57.533Z,61.70
2017-07-28T06:52:24.411Z,60.90
2017-07-28T06:54:52.033Z,60.90
2017-07-28T06:57:19.018Z,60.90
2017-07-28T06:59:46.626Z,60.80
2017-07-28T07:02:13.536Z,60.10
2017-07-28T07:04:41.219Z,60.40
2017-07-28T07:07:08.227Z,59.80
2017-07-28T07:09:35.097Z,59.70
2017-07-28T07:12:02.702Z,59.00
2017-07-28T07:14:29.639Z,59.00
2017-07-28T07:16:56.554Z,57.70
2017-07-28T07:19:23.432Z,58.90
2017-07-28T07:21:50.460Z,58.60
2017-07-28T07:24:17.405Z,58.60
2017-07-28T07:26:44.283Z,58.90
2017-07-28T07:29:11.239Z,59.00
2017-07-28T07:31:38.107Z,58.90
2017-07-28T07:34:05.730Z,56.10
2017-07-28T07:36:32.650Z,56.10
2017-07-28T07:38:59.584Z,56.60
2017-07-28T07:41:27.255Z,55.90
2017-07-28T07:43:54.116Z,55.20
2017-07-28T07:46:20.977Z,55.50
2017-07-28T07:48:47.929Z,55.10
2017-07-28T07:51:14.904Z,53.90
2017-07-28T07:53:41.821Z,53.40
2017-07-28T07:56:08.682Z,52.80
2017-07-28T07:58:37.794Z,52.70
2017-07-28T08:01:04.675Z,52.50
2017-07-28T08:03:32.668Z,52.30
2017-07-28T08:06:00.693Z,52.20
2017-07-28T08:08:28.295Z,51.70
2017-07-28T08:10:55.317Z,51.70
2017-07-28T08:13:22.156Z,51.30
2017-07-28T08:15:49.015Z,52.00
2017-07-28T08:18:15.949Z,51.90
2017-07-28T08:20:42.819Z,50.70
2017-07-28T08:23:09.671Z,50.70
2017-07-28T08:25:37.145Z,50.10
2017-07-28T08:28:09.092Z,50.10
2017-07-28T08:30:36.431Z,49.70
2017-07-28T08:33:03.380Z,49.70
2017-07-28T08:35:31.399Z,48.90
2017-07-28T08:37:58.272Z,49.10
2017-07-28T08:40:25.939Z,47.60
2017-07-28T08:42:52.798Z,47.50
2017-07-28T08:45:19.740Z,47.30
2017-07-28T08:47:48.144Z,48.50
2017-07-28T08:50:16.086Z,46.90
2017-07-28T08:52:43.052Z,46.80
2017-07-28T08:55:09.998Z,46.50
2017-07-28T08:57:36.875Z,46.00
2017-07-28T09:00:03.788Z,45.60
2017-07-28T09:19:51.834Z,45.70
2017-07-28T09:22:18.751Z,45.80
2017-07-28T09:24:45.631Z,44.70
2017-07-28T09:27:12.554Z,44.10
2017-07-28T09:29:40.160Z,42.60
2017-07-28T09:32:07.011Z,42.60
2017-07-28T09:34:33.919Z,43.40
2017-07-28T09:37:00.779Z,44.20
2017-07-28T09:39:27.810Z,44.10
2017-07-28T09:41:54.748Z,43.30
2017-07-28T09:44:21.623Z,43.10
2017-07-28T09:46:48.489Z,42.40
2017-07-28T09:49:15.434Z,41.50
2017-07-28T09:51:42.319Z,40.90
2017-07-28T09:54:09.941Z,42.00
2017-07-28T09:56:36.880Z,42.00
2017-07-28T09:59:03.763Z,41.90
2017-07-28T10:01:31.878Z,42.50
2017-07-28T10:03:58.784Z,42.40
2017-07-28T10:06:26.468Z,42.30
2017-07-28T10:08:55.531Z,41.70
2017-07-28T10:11:27.548Z,41.50
2017-07-28T10:13:54.888Z,41.60
2017-07-28T10:16:21.796Z,42.00
2017-07-28T10:18:48.731Z,43.00
2017-07-28T10:21:15.619Z,43.10
2017-07-28T10:23:43.232Z,42.70
2017-07-28T10:26:10.204Z,42.80
2017-07-28T10:28:37.848Z,40.30
2017-07-28T10:31:04.748Z,39.60
2017-07-28T10:33:31.691Z,39.50
2017-07-28T10:35:58.672Z,38.80
2017-07-28T10:38:25.567Z,37.60
2017-07-28T10:40:52.505Z,36.70
2017-07-28T10:43:20.220Z,37.80
2017-07-28T10:45:47.093Z,37.80
2017-07-28T10:48:14.076Z,38.00
2017-07-28T10:50:41.066Z,40.00
2017-07-28T10:53:07.933Z,39.70
2017-07-28T10:55:34.844Z,38.90
2017-07-28T10:58:01.808Z,38.20
2017-07-28T11:00:28.789Z,38.70
2017-07-28T11:02:56.421Z,38.70
2017-07-28T11:05:23.295Z,38.60
2017-07-28T11:07:50.263Z,39.60
2017-07-28T11:10:17.162Z,39.40
2017-07-28T11:12:44.851Z,39.00
2017-07-28T11:15:12.580Z,38.30
2017-07-28T11:17:40.039Z,37.70
2017-07-28T11:20:08.210Z,37.60
2017-07-28T11:22:35.840Z,39.00
2017-07-28T11:25:03.708Z,39.10
2017-07-28T11:27:32.372Z,39.80
2017-07-28T11:30:00.498Z,39.50
2017-07-28T11:32:27.527Z,39.70
2017-07-28T11:34:54.904Z,40.00
2017-07-28T11:37:28.442Z,39.90
2017-07-28T11:39:55.676Z,40.40
2017-07-28T11:42:23.404Z,39.80
2017-07-28T11:44:50.425Z,39.70
2017-07-28T11:47:17.362Z,39.20
2017-07-28T11:49:45.379Z,40.50
2017-07-28T11:52:12.376Z,40.50
2017-07-28T11:54:39.442Z,40.60
2017-07-28T11:57:07.588Z,39.80
2017-07-28T11:59:34.498Z,39.70
2017-07-28T12:02:02.052Z,39.70
2017-07-28T12:04:29.004Z,40.40
2017-07-28T12:06:56.025Z,39.60
2017-07-28T12:09:23.039Z,38.90
2017-07-28T12:11:50.328Z,38.50
2017-07-28T12:14:17.341Z,38.40
2017-07-28T12:16:44.332Z,38.00
2017-07-28T12:19:11.279Z,37.80
2017-07-28T12:21:38.275Z,38.20
2017-07-28T12:24:05.215Z,38.60
2017-07-28T12:26:32.245Z,37.30
2017-07-28T12:28:59.361Z,37.70
2017-07-28T12:31:26.258Z,36.90
2017-07-28T12:33:53.352Z,37.80
2017-07-28T12:36:21.047Z,36.10
2017-07-28T12:38:47.984Z,36.00
2017-07-28T12:41:14.882Z,36.70
2017-07-28T12:43:41.868Z,35.90
2017-07-28T12:46:10.695Z,36.30
2017-07-28T12:48:37.608Z,37.70
2017-07-28T12:51:04.545Z,37.20
2017-07-28T12:53:31.495Z,35.90
2017-07-28T12:55:59.801Z,36.90
2017-07-28T12:58:27.145Z,37.00
2017-07-28T13:00:55.363Z,37.60
2017-07-28T13:03:22.821Z,38.30
2017-07-28T13:05:50.821Z,37.10
2017-07-28T13:08:18.282Z,37.00
2017-07-28T13:10:48.906Z,37.80
2017-07-28T13:13:20.287Z,36.00
2017-07-28T13:15:47.546Z,35.90
2017-07-28T13:18:15.077Z,36.30
2017-07-28T13:20:42.341Z,35.70
2017-07-28T13:23:09.823Z,36.00
2017-07-28T13:25:37.958Z,37.50
2017-07-28T13:28:05.221Z,37.70
2017-07-28T13:30:32.717Z,36.90
2017-07-28T13:32:59.946Z,36.90
2017-07-28T13:35:30.191Z,36.50
2017-07-28T13:37:57.482Z,36.90
2017-07-28T13:40:24.696Z,36.20
2017-07-28T13:42:54.821Z,35.90
2017-07-28T13:45:21.884Z,36.30
2017-07-28T13:47:48.743Z,36.50
2017-07-28T13:50:15.704Z,36.80
2017-07-28T13:52:43.304Z,35.50
2017-07-28T13:55:10.263Z,35.60
2017-07-28T13:57:37.190Z,35.30
2017-07-28T14:00:04.214Z,35.00
2017-07-28T14:02:31.824Z,35.40
2017-07-28T14:04:58.715Z,35.40
2017-07-28T14:07:26.444Z,36.40
2017-07-28T14:09:53.338Z,36.30
2017-07-28T14:12:21.043Z,36.50
2017-07-28T14:14:47.907Z,36.50
2017-07-28T14:17:14.759Z,36.10
2017-07-28T14:19:41.723Z,35.80
2017-07-28T14:22:09.494Z,35.80
2017-07-28T14:24:36.604Z,35.70
2017-07-28T14:27:04.759Z,36.90
2017-07-28T14:29:32.474Z,36.20
2017-07-28T14:32:01.041Z,35.80
2017-07-28T14:34:28.523Z,35.70
2017-07-28T14:36:56.701Z,37.10
2017-07-28T14:39:24.096Z,36.60
2017-07-28T14:41:54.770Z,37.10
2017-07-28T14:44:21.748Z,36.20
2017-07-28T14:46:50.348Z,35.60
2017-07-28T14:49:17.843Z,35.30
2017-07-28T14:51:47.233Z,36.20
2017-07-28T14:54:17.485Z,35.80
2017-07-28T14:56:49.165Z,35.90
2017-07-28T14:59:17.809Z,36.10
2017-07-28T15:01:45.278Z,37.10
2017-07-28T15:04:12.357Z,36.50
2017-07-28T15:06:39.239Z,37.60
2017-07-28T15:09:07.646Z,36.70
2017-07-28T15:11:35.350Z,36.70
2017-07-28T15:14:05.041Z,36.20
2017-07-28T15:16:32.770Z,36.10
2017-07-28T15:19:00.830Z,36.00
2017-07-28T15:21:29.052Z,36.40
2017-07-28T15:23:56.405Z,37.00
2017-07-28T15:26:24.266Z,37.90
2017-07-28T15:28:51.252Z,36.90
2017-07-28T15:31:19.594Z,36.80
2017-07-28T15:33:47.767Z,36.80
2017-07-28T15:36:15.032Z,37.40
2017-07-28T15:38:42.007Z,36.30
2017-07-28T15:41:18.078Z,36.70
2017-07-28T15:43:45.992Z,36.60
2017-07-28T15:46:13.665Z,36.30
2017-07-28T15:48:42.192Z,36.30
2017-07-28T15:51:09.091Z,36.80
2017-07-28T15:53:39.972Z,36.60
2017-07-28T15:56:14.034Z,37.00
2017-07-28T15:58:42.493Z,37.20
2017-07-28T16:01:11.344Z,37.90
2017-07-28T16:03:40.105Z,38.10
2017-07-28T16:06:14.448Z,37.90
2017-07-28T16:08:45.855Z,37.90
2017-07-28T16:13:58.822Z,37.90
2017-07-28T16:16:27.918Z,37.70
2017-07-28T16:19:00.779Z,37.80
2017-07-28T16:21:30.711Z,38.30
2017-07-28T16:24:04.513Z,38.40
2017-07-28T16:26:37.904Z,38.00
2017-07-28T16:29:17.013Z,38.10
2017-07-28T16:31:52.602Z,38.30
2017-07-28T16:34:27.635Z,39.20
2017-07-28T16:36:56.786Z,39.20
2017-07-28T16:39:32.035Z,38.00
2017-07-28T16:42:07.216Z,38.40
2017-07-28T16:44:44.156Z,38.70
2017-07-28T16:47:17.697Z,38.90
2017-07-28T16:52:37.071Z,39.70
2017-07-28T16:55:04.076Z,39.30
2017-07-28T16:57:30.968Z,39.00
2017-07-28T16:59:58.001Z,38.70
2017-07-28T17:02:24.914Z,38.70
2017-07-28T17:04:51.792Z,38.10
2017-07-28T17:07:18.736Z,37.90
2017-07-28T17:09:45.686Z,36.70
2017-07-28T17:12:12.621Z,36.80
2017-07-28T17:14:40.218Z,37.90
2017-07-28T17:17:07.151Z,37.40
2017-07-28T17:19:34.137Z,37.60
2017-07-28T17:22:01.123Z,37.60
2017-07-28T17:24:28.034Z,37.50
2017-07-28T17:26:55.219Z,38.90
2017-07-28T17:29:22.857Z,37.60
2017-07-28T17:31:49.816Z,37.60
2017-07-28T17:34:16.946Z,38.80
2017-07-28T17:36:44.030Z,38.40
2017-07-28T17:39:10.962Z,38.80
2017-07-28T17:41:37.892Z,39.00
2017-07-28T17:44:04.831Z,38.90
2017-07-28T17:46:31.689Z,39.70
2017-07-28T17:48:58.581Z,39.40
2017-07-28T17:51:25.595Z,39.80
2017-07-28T17:53:52.500Z,40.00
2017-07-28T17:56:19.382Z,39.80
2017-07-28T17:58:46.355Z,39.90
2017-07-28T18:01:13.251Z,40.50
2017-07-28T18:03:42.239Z,40.00
2017-07-28T18:06:13.792Z,40.10
2017-07-28T18:08:41.742Z,40.50
2017-07-28T18:11:09.584Z,40.70
2017-07-28T18:13:37.042Z,41.20
2017-07-28T18:16:11.575Z,40.70
2017-07-28T18:18:44.505Z,40.60
2017-07-28T18:21:13.188Z,40.40
2017-07-28T18:23:42.183Z,40.40
2017-07-28T18:26:10.808Z,41.00
2017-07-28T18:28:47.281Z,41.00
2017-07-28T18:34:03.251Z,41.50
2017-07-28T18:36:31.688Z,42.10
2017-07-28T18:38:59.794Z,41.90
2017-07-28T18:41:29.229Z,42.60
2017-07-28T18:43:59.528Z,43.10
2017-07-28T18:46:27.628Z,43.10
2017-07-28T18:48:55.284Z,43.60
2017-07-28T18:51:23.231Z,43.50
2017-07-28T18:53:51.356Z,43.10
2017-07-28T18:56:18.996Z,43.70
2017-07-28T18:58:47.091Z,43.10
2017-07-28T19:01:16.031Z,43.60
2017-07-28T19:03:43.882Z,43.60
2017-07-28T19:06:11.125Z,43.10
2017-07-28T19:08:41.204Z,43.50
2017-07-28T19:11:08.708Z,43.50
2017-07-28T19:13:44.164Z,44.70
2017-07-28T19:16:12.802Z,44.20
2017-07-28T19:18:42.614Z,45.00
2017-07-28T19:21:14.163Z,45.80
2017-07-28T19:23:44.164Z,46.50
2017-07-28T19:26:17.019Z,47.80
2017-07-28T19:28:45.315Z,49.00
2017-07-28T19:31:12.302Z,49.30
2017-07-28T19:33:41.861Z,51.30
2017-07-28T19:36:16.907Z,51.20
2017-07-28T19:38:46.933Z,52.50
2017-07-28T19:41:16.980Z,53.30
2017-07-28T19:43:46.029Z,54.00
2017-07-28T19:46:15.937Z,55.00
2017-07-28T19:48:49.321Z,53.90
2017-07-28T19:51:20.731Z,52.70
2017-07-28T19:56:31.233Z,51.80
2017-07-28T19:58:58.849Z,51.80
2017-07-28T20:01:28.473Z,52.10
2017-07-28T20:03:55.933Z,52.70
2017-07-28T20:06:25.676Z,53.60
2017-07-28T20:08:56.059Z,53.70
2017-07-28T20:11:26.676Z,53.40
2017-07-28T20:13:55.156Z,52.30
2017-07-28T20:16:39.025Z,52.10
2017-07-28T20:21:55.198Z,52.50
2017-07-28T20:24:31.072Z,53.50
2017-07-28T20:27:08.707Z,55.50
2017-07-28T20:29:45.879Z,55.50
2017-07-28T20:32:21.354Z,57.00
2017-07-28T20:34:58.395Z,57.70
2017-07-28T20:37:31.926Z,57.70
2017-07-28T20:40:01.746Z,57.70
2017-07-28T20:42:44.214Z,58.00
2017-07-28T20:45:26.458Z,58.40
2017-07-28T20:47:59.248Z,59.00
2017-07-28T20:50:30.080Z,57.90
2017-07-28T20:52:57.040Z,58.20
2017-07-28T20:55:23.917Z,58.20
2017-07-28T20:57:50.871Z,57.80
2017-07-28T21:00:17.739Z,57.30
2017-07-28T21:02:47.753Z,57.40
2017-07-28T21:08:02.422Z,58.40
2017-07-28T21:10:30.771Z,59.00
2017-07-28T21:13:02.496Z,60.10
2017-07-28T21:15:33.106Z,60.50
2017-07-28T21:18:01.547Z,61.40
2017-07-28T21:20:29.228Z,61.50
2017-07-28T21:22:57.097Z,62.10
2017-07-28T21:25:26.465Z,61.80
2017-07-28T21:28:00.598Z,61.50
2017-07-28T21:30:31.562Z,61.50
2017-07-28T21:33:01.942Z,61.50
2017-07-28T21:35:32.055Z,60.90
2017-07-28T21:38:03.063Z,61.20
2017-07-28T21:43:06.345Z,60.10
2017-07-28T21:45:33.412Z,60.70
2017-07-28T21:48:05.956Z,61.90
2017-07-28T21:50:35.574Z,61.90
2017-07-28T21:53:06.259Z,62.30
2017-07-28T21:55:37.378Z,61.50
2017-07-28T21:58:10.519Z,61.80
2017-07-28T22:00:49.769Z,61.80
2017-07-28T22:03:23.930Z,62.90
2017-07-28T22:05:53.992Z,62.90
2017-07-28T22:08:33.282Z,63.00
2017-07-28T22:11:06.882Z,63.80
2017-07-28T22:13:36.904Z,64.50
2017-07-28T22:16:04.547Z,64.00
2017-07-28T22:18:33.865Z,64.00
2017-07-28T22:21:01.620Z,63.90
2017-07-28T22:23:30.741Z,63.40
2017-07-28T22:25:58.912Z,63.60
2017-07-28T22:28:26.771Z,64.80
2017-07-28T22:30:55.073Z,65.20
2017-07-28T22:33:22.704Z,66.10
2017-07-28T22:35:51.380Z,66.10
2017-07-28T22:38:20.833Z,66.00
2017-07-28T22:40:49.901Z,64.60
2017-07-28T22:43:18.499Z,63.80
2017-07-28T22:45:48.368Z,64.70
2017-07-28T22:48:18.444Z,63.80
2017-07-28T22:50:46.508Z,63.40
2017-07-28T22:53:15.472Z,62.80
2017-07-28T22:55:44.276Z,63.50
2017-07-28T22:58:11.457Z,63.50
2017-07-28T23:00:38.428Z,63.20
2017-07-28T23:03:05.323Z,63.00
2017-07-28T23:05:32.262Z,63.50
2017-07-28T23:07:59.210Z,64.60
2017-07-28T23:10:26.162Z,66.10
2017-07-28T23:12:53.047Z,66.30
2017-07-28T23:15:19.967Z,67.00
2017-07-28T23:17:47.657Z,66.90
2017-07-28T23:20:14.559Z,66.90
2017-07-28T23:22:41.424Z,66.60
2017-07-28T23:25:08.405Z,66.50
2017-07-28T23:27:35.275Z,66.40
2017-07-28T23:30:02.227Z,66.40
2017-07-28T23:32:29.237Z,66.90
2017-07-28T23:34:56.155Z,66.60
2017-07-28T23:37:23.784Z,66.80
2017-07-28T23:39:50.723Z,66.70
2017-07-28T23:42:17.567Z,66.70
2017-07-28T23:44:44.479Z,66.60
2017-07-28T23:47:11.406Z,66.80
2017-07-28T23:49:38.292Z,66.70
2017-07-28T23:52:05.238Z,66.90
2017-07-28T23:54:32.208Z,68.00
2017-07-28T23:56:59.120Z,67.00
2017-07-28T23:59:26.089Z,67.20
